sensor_id;sensor_type;location;lat;lon;timestamp;pressure;altitude;pressure_sealevel;temperature;humidity
51999;BME280;73339;50.924;11.598;2023-12-20T00:02:04;99154.66;;;19.45;34.46
51999;BME280;73339;50.924;11.598;2023-12-20T00:04:34;99150.78;;;19.42;34.52
51999;BME280;73339;50.924;11.598;2023-12-20T00:07:05;99152.16;;;19.41;34.54
51999;BME280;73339;50.924;11.598;2023-12-20T00:09:35;99142.96;;;19.40;34.53
51999;BME280;73339;50.924;11.598;2023-12-20T00:12:06;99140.91;;;19.38;34.57
51999;BME280;73339;50.924;11.598;2023-12-20T00:14:36;99140.85;;;19.35;34.61
51999;BME280;73339;50.924;11.598;2023-12-20T00:17:06;99136.32;;;19.35;34.64
51999;BME280;73339;50.924;11.598;2023-12-20T00:19:37;99140.23;;;19.31;34.72
51999;BME280;73339;50.924;11.598;2023-12-20T00:22:08;99137.01;;;19.39;34.56
51999;BME280;73339;50.924;11.598;2023-12-20T00:24:38;99139.80;;;19.37;34.59
51999;BME280;73339;50.924;11.598;2023-12-20T00:27:08;99138.29;;;19.31;34.72
51999;BME280;73339;50.924;11.598;2023-12-20T00:29:39;99133.57;;;19.38;34.58
51999;BME280;73339;50.924;11.598;2023-12-20T00:32:09;99127.52;;;19.43;34.49
51999;BME280;73339;50.924;11.598;2023-12-20T00:34:40;99127.69;;;19.33;34.68
51999;BME280;73339;50.924;11.598;2023-12-20T00:37:11;99119.39;;;19.35;34.64
51999;BME280;73339;50.924;11.598;2023-12-20T00:39:41;99113.23;;;19.30;34.74
51999;BME280;73339;50.924;11.598;2023-12-20T00:42:11;99120.55;;;19.38;34.60
51999;BME280;73339;50.924;11.598;2023-12-20T00:44:42;99123.32;;;19.42;34.50
51999;BME280;73339;50.924;11.598;2023-12-20T00:47:12;99127.45;;;19.41;34.52
51999;BME280;73339;50.924;11.598;2023-12-20T00:49:43;99129.17;;;19.46;34.42
51999;BME280;73339;50.924;11.598;2023-12-20T00:52:13;99130.13;;;19.41;34.53
51999;BME280;73339;50.924;11.598;2023-12-20T00:54:44;99130.65;;;19.37;34.60
51999;BME280;73339;50.924;11.598;2023-12-20T00:57:14;99133.41;;;19.31;34.74
51999;BME280;73339;50.924;11.598;2023-12-20T00:59:45;99124.79;;;19.37;34.60
51999;BME280;73339;50.924;11.598;2023-12-20T01:02:15;99119.84;;;19.39;34.56
51999;BME280;73339;50.924;11.598;2023-12-20T01:04:46;99112.82;;;19.42;34.50
51999;BME280;73339;50.924;11.598;2023-12-20T01:07:16;99111.22;;;19.33;34.70
51999;BME280;73339;50.924;11.598;2023-12-20T01:09:46;99110.36;;;19.30;34.74
51999;BME280;73339;50.924;11.598;2023-12-20T01:12:17;99113.86;;;19.29;34.79
51999;BME280;73339;50.924;11.598;2023-12-20T01:14:47;99108.22;;;19.31;34.71
51999;BME280;73339;50.924;11.598;2023-12-20T01:17:18;99112.69;;;19.38;34.58
51999;BME280;73339;50.924;11.598;2023-12-20T01:19:49;99107.38;;;19.36;34.63
51999;BME280;73339;50.924;11.598;2023-12-20T01:22:19;99101.10;;;19.37;34.57
51999;BME280;73339;50.924;11.598;2023-12-20T01:24:49;99098.09;;;19.38;34.58
51999;BME280;73339;50.924;11.598;2023-12-20T01:27:20;99094.30;;;19.34;34.65
51999;BME280;73339;50.924;11.598;2023-12-20T01:29:51;99093.39;;;19.35;34.64
51999;BME280;73339;50.924;11.598;2023-12-20T01:32:21;99094.35;;;19.30;34.74
51999;BME280;73339;50.924;11.598;2023-12-20T01:34:51;99095.37;;;19.38;34.58
51999;BME280;73339;50.924;11.598;2023-12-20T01:37:22;99097.55;;;19.34;34.64
51999;BME280;73339;50.924;11.598;2023-12-20T01:39:52;99096.83;;;19.41;34.50
51999;BME280;73339;50.924;11.598;2023-12-20T01:42:23;99094.61;;;19.40;34.55
51999;BME280;73339;50.924;11.598;2023-12-20T01:44:53;99085.07;;;19.33;34.67
51999;BME280;73339;50.924;11.598;2023-12-20T01:47:24;99085.89;;;19.34;34.65
51999;BME280;73339;50.924;11.598;2023-12-20T01:49:54;99082.24;;;19.36;34.61
51999;BME280;73339;50.924;11.598;2023-12-20T01:52:25;99084.26;;;19.41;34.50
51999;BME280;73339;50.924;11.598;2023-12-20T01:54:55;99078.47;;;19.42;34.50
51999;BME280;73339;50.924;11.598;2023-12-20T01:57:26;99080.09;;;19.31;34.73
51999;BME280;73339;50.924;11.598;2023-12-20T01:59:57;99073.69;;;19.28;34.77
51999;BME280;73339;50.924;11.598;2023-12-20T02:02:27;99069.88;;;19.36;34.64
51999;BME280;73339;50.924;11.598;2023-12-20T02:04:57;99065.14;;;19.39;34.58
51999;BME280;73339;50.924;11.598;2023-12-20T02:07:29;99070.65;;;19.41;34.50
51999;BME280;73339;50.924;11.598;2023-12-20T02:09:58;99074.44;;;19.40;34.52
51999;BME280;73339;50.924;11.598;2023-12-20T02:12:29;99072.43;;;19.37;34.57
51999;BME280;73339;50.924;11.598;2023-12-20T02:14:59;99068.08;;;19.33;34.65
51999;BME280;73339;50.924;11.598;2023-12-20T02:17:30;99063.07;;;19.31;34.69
51999;BME280;73339;50.924;11.598;2023-12-20T02:20:00;99062.28;;;19.36;34.58
51999;BME280;73339;50.924;11.598;2023-12-20T02:22:31;99065.90;;;19.35;34.59
51999;BME280;73339;50.924;11.598;2023-12-20T02:25:01;99060.49;;;19.41;34.48
51999;BME280;73339;50.924;11.598;2023-12-20T02:27:32;99061.81;;;19.43;34.43
51999;BME280;73339;50.924;11.598;2023-12-20T02:30:02;99059.57;;;19.40;34.50
51999;BME280;73339;50.924;11.598;2023-12-20T02:32:34;99054.81;;;19.44;34.41
51999;BME280;73339;50.924;11.598;2023-12-20T02:35:04;99050.47;;;19.35;34.60
51999;BME280;73339;50.924;11.598;2023-12-20T02:37:33;99051.15;;;19.37;34.56
51999;BME280;73339;50.924;11.598;2023-12-20T02:40:05;99049.38;;;19.33;34.62
51999;BME280;73339;50.924;11.598;2023-12-20T02:42:34;99052.89;;;19.32;34.65
51999;BME280;73339;50.924;11.598;2023-12-20T02:45:06;99053.45;;;19.32;34.66
51999;BME280;73339;50.924;11.598;2023-12-20T02:47:35;99052.15;;;19.35;34.61
51999;BME280;73339;50.924;11.598;2023-12-20T02:50:06;99057.14;;;19.32;34.68
51999;BME280;73339;50.924;11.598;2023-12-20T02:52:36;99054.62;;;19.32;34.65
51999;BME280;73339;50.924;11.598;2023-12-20T02:55:07;99046.78;;;19.31;34.68
51999;BME280;73339;50.924;11.598;2023-12-20T02:57:37;99047.73;;;19.42;34.48
51999;BME280;73339;50.924;11.598;2023-12-20T03:00:09;99046.08;;;19.39;34.50
51999;BME280;73339;50.924;11.598;2023-12-20T03:02:38;99044.96;;;19.37;34.55
51999;BME280;73339;50.924;11.598;2023-12-20T03:05:09;99039.01;;;19.34;34.62
51999;BME280;73339;50.924;11.598;2023-12-20T03:07:39;99035.68;;;19.26;34.80
51999;BME280;73339;50.924;11.598;2023-12-20T03:10:10;99032.67;;;19.32;34.69
51999;BME280;73339;50.924;11.598;2023-12-20T03:12:40;99031.12;;;19.35;34.60
51999;BME280;73339;50.924;11.598;2023-12-20T03:15:11;99035.29;;;19.36;34.59
51999;BME280;73339;50.924;11.598;2023-12-20T03:17:41;99036.38;;;19.32;34.68
51999;BME280;73339;50.924;11.598;2023-12-20T03:20:12;99036.25;;;19.36;34.58
51999;BME280;73339;50.924;11.598;2023-12-20T03:22:42;99032.41;;;19.31;34.69
51999;BME280;73339;50.924;11.598;2023-12-20T03:25:12;99034.92;;;19.31;34.72
51999;BME280;73339;50.924;11.598;2023-12-20T03:27:43;99025.18;;;19.34;34.64
51999;BME280;73339;50.924;11.598;2023-12-20T03:30:14;99014.43;;;19.26;34.77
51999;BME280;73339;50.924;11.598;2023-12-20T03:32:44;99015.82;;;19.29;34.72
51999;BME280;73339;50.924;11.598;2023-12-20T03:35:15;99019.55;;;19.26;34.78
51999;BME280;73339;50.924;11.598;2023-12-20T03:37:45;99030.82;;;19.33;34.66
51999;BME280;73339;50.924;11.598;2023-12-20T03:40:15;99026.12;;;19.29;34.73
51999;BME280;73339;50.924;11.598;2023-12-20T03:42:46;99024.35;;;19.34;34.65
51999;BME280;73339;50.924;11.598;2023-12-20T03:45:17;99028.74;;;19.31;34.71
51999;BME280;73339;50.924;11.598;2023-12-20T03:47:47;99036.64;;;19.39;34.56
51999;BME280;73339;50.924;11.598;2023-12-20T03:50:17;99035.95;;;19.33;34.65
51999;BME280;73339;50.924;11.598;2023-12-20T03:52:48;99025.50;;;19.32;34.68
51999;BME280;73339;50.924;11.598;2023-12-20T03:55:18;99031.77;;;19.34;34.64
51999;BME280;73339;50.924;11.598;2023-12-20T03:57:49;99033.06;;;19.33;34.65
51999;BME280;73339;50.924;11.598;2023-12-20T04:00:20;99037.29;;;19.37;34.59
51999;BME280;73339;50.924;11.598;2023-12-20T04:02:50;99034.92;;;19.29;34.70
51999;BME280;73339;50.924;11.598;2023-12-20T04:05:20;99058.28;;;19.31;34.66
51999;BME280;73339;50.924;11.598;2023-12-20T04:07:51;99057.00;;;19.24;34.80
51999;BME280;73339;50.924;11.598;2023-12-20T04:10:21;99065.91;;;19.27;34.74
51999;BME280;73339;50.924;11.598;2023-12-20T04:12:52;99052.66;;;19.28;34.73
51999;BME280;73339;50.924;11.598;2023-12-20T04:15:22;99058.15;;;19.35;34.62
51999;BME280;73339;50.924;11.598;2023-12-20T04:17:53;99051.84;;;19.28;34.74
51999;BME280;73339;50.924;11.598;2023-12-20T04:20:23;99044.02;;;19.24;34.81
51999;BME280;73339;50.924;11.598;2023-12-20T04:22:54;99043.29;;;19.33;34.67
51999;BME280;73339;50.924;11.598;2023-12-20T04:25:24;99042.13;;;19.23;34.86
51999;BME280;73339;50.924;11.598;2023-12-20T04:27:55;99044.18;;;19.35;34.62
51999;BME280;73339;50.924;11.598;2023-12-20T04:30:25;99054.30;;;19.23;34.88
51999;BME280;73339;50.924;11.598;2023-12-20T04:32:55;99070.92;;;19.29;34.79
51999;BME280;73339;50.924;11.598;2023-12-20T04:35:26;99060.19;;;19.26;34.81
51999;BME280;73339;50.924;11.598;2023-12-20T04:37:56;99064.07;;;19.29;34.77
51999;BME280;73339;50.924;11.598;2023-12-20T04:40:27;99071.00;;;19.29;34.75
51999;BME280;73339;50.924;11.598;2023-12-20T04:42:57;99067.10;;;19.31;34.72
51999;BME280;73339;50.924;11.598;2023-12-20T04:45:28;99068.59;;;19.31;34.71
51999;BME280;73339;50.924;11.598;2023-12-20T04:47:58;99072.84;;;19.31;34.72
51999;BME280;73339;50.924;11.598;2023-12-20T04:50:29;99067.28;;;19.35;34.65
51999;BME280;73339;50.924;11.598;2023-12-20T04:52:59;99070.49;;;19.40;34.55
51999;BME280;73339;50.924;11.598;2023-12-20T04:55:30;99077.62;;;19.36;34.62
51999;BME280;73339;50.924;11.598;2023-12-20T04:58:00;99075.80;;;19.36;34.62
51999;BME280;73339;50.924;11.598;2023-12-20T05:00:31;99085.26;;;19.31;34.71
51999;BME280;73339;50.924;11.598;2023-12-20T05:03:01;99085.75;;;19.38;34.56
51999;BME280;73339;50.924;11.598;2023-12-20T05:05:33;99086.56;;;19.42;34.49
51999;BME280;73339;50.924;11.598;2023-12-20T05:08:03;99085.76;;;19.33;34.67
51999;BME280;73339;50.924;11.598;2023-12-20T05:10:33;99085.21;;;19.40;34.56
51999;BME280;73339;50.924;11.598;2023-12-20T05:13:03;99080.92;;;19.32;34.71
51999;BME280;73339;50.924;11.598;2023-12-20T05:15:33;99083.79;;;19.30;34.75
51999;BME280;73339;50.924;11.598;2023-12-20T05:18:04;99078.05;;;19.31;34.74
51999;BME280;73339;50.924;11.598;2023-12-20T05:20:34;99083.99;;;19.34;34.71
51999;BME280;73339;50.924;11.598;2023-12-20T05:23:05;99085.60;;;19.33;34.74
51999;BME280;73339;50.924;11.598;2023-12-20T05:25:35;99090.75;;;19.31;34.78
51999;BME280;73339;50.924;11.598;2023-12-20T05:28:06;99090.76;;;19.34;34.71
51999;BME280;73339;50.924;11.598;2023-12-20T05:30:36;99094.67;;;19.39;34.64
51999;BME280;73339;50.924;11.598;2023-12-20T05:33:07;99096.03;;;19.30;34.83
51999;BME280;73339;50.924;11.598;2023-12-20T05:35:37;99094.96;;;19.33;34.77
51999;BME280;73339;50.924;11.598;2023-12-20T05:38:08;99099.40;;;19.28;34.87
51999;BME280;73339;50.924;11.598;2023-12-20T05:40:38;99105.24;;;19.35;34.73
51999;BME280;73339;50.924;11.598;2023-12-20T05:43:09;99097.56;;;19.34;34.79
51999;BME280;73339;50.924;11.598;2023-12-20T05:45:39;99102.95;;;19.24;34.98
51999;BME280;73339;50.924;11.598;2023-12-20T05:48:10;99105.02;;;19.29;34.89
51999;BME280;73339;50.924;11.598;2023-12-20T05:50:40;99106.52;;;19.27;34.93
51999;BME280;73339;50.924;11.598;2023-12-20T05:53:11;99114.62;;;19.26;34.95
51999;BME280;73339;50.924;11.598;2023-12-20T05:55:41;99111.79;;;19.27;34.95
51999;BME280;73339;50.924;11.598;2023-12-20T05:58:11;99108.12;;;19.20;35.06
51999;BME280;73339;50.924;11.598;2023-12-20T06:00:42;99109.25;;;19.22;35.04
51999;BME280;73339;50.924;11.598;2023-12-20T06:03:12;99108.63;;;19.26;34.96
51999;BME280;73339;50.924;11.598;2023-12-20T06:05:43;99111.03;;;19.32;34.87
51999;BME280;73339;50.924;11.598;2023-12-20T06:08:13;99107.03;;;19.27;34.92
51999;BME280;73339;50.924;11.598;2023-12-20T06:10:44;99114.19;;;19.20;35.11
51999;BME280;73339;50.924;11.598;2023-12-20T06:13:14;99113.26;;;19.21;35.08
51999;BME280;73339;50.924;11.598;2023-12-20T06:15:45;99115.01;;;19.19;35.13
51999;BME280;73339;50.924;11.598;2023-12-20T06:18:16;99107.09;;;19.24;35.01
51999;BME280;73339;50.924;11.598;2023-12-20T06:20:46;99116.62;;;19.31;34.90
51999;BME280;73339;50.924;11.598;2023-12-20T06:23:16;99126.38;;;19.32;34.88
51999;BME280;73339;50.924;11.598;2023-12-20T06:25:47;99125.22;;;19.25;34.99
51999;BME280;73339;50.924;11.598;2023-12-20T06:28:17;99129.69;;;19.29;34.91
51999;BME280;73339;50.924;11.598;2023-12-20T06:30:48;99131.14;;;19.31;34.89
51999;BME280;73339;50.924;11.598;2023-12-20T06:33:18;99128.97;;;19.24;35.01
51999;BME280;73339;50.924;11.598;2023-12-20T06:35:49;99126.92;;;19.33;34.83
51999;BME280;73339;50.924;11.598;2023-12-20T06:38:20;99124.06;;;19.22;35.00
51999;BME280;73339;50.924;11.598;2023-12-20T06:40:50;99133.68;;;19.23;34.98
51999;BME280;73339;50.924;11.598;2023-12-20T06:43:20;99132.13;;;19.14;35.14
51999;BME280;73339;50.924;11.598;2023-12-20T06:45:51;99136.15;;;19.12;35.16
51999;BME280;73339;50.924;11.598;2023-12-20T06:48:21;99136.09;;;19.18;35.01
51999;BME280;73339;50.924;11.598;2023-12-20T06:50:51;99140.95;;;19.29;34.82
51999;BME280;73339;50.924;11.598;2023-12-20T06:53:22;99149.05;;;19.32;34.76
51999;BME280;73339;50.924;11.598;2023-12-20T06:55:52;99146.08;;;19.37;34.65
51999;BME280;73339;50.924;11.598;2023-12-20T06:58:23;99151.16;;;19.40;34.60
51999;BME280;73339;50.924;11.598;2023-12-20T07:00:53;99151.42;;;19.38;34.64
51999;BME280;73339;50.924;11.598;2023-12-20T07:03:24;99151.21;;;19.28;34.85
51999;BME280;73339;50.924;11.598;2023-12-20T07:05:54;99145.58;;;19.33;34.76
51999;BME280;73339;50.924;11.598;2023-12-20T07:08:25;99145.70;;;19.35;34.71
51999;BME280;73339;50.924;11.598;2023-12-20T07:10:55;99145.01;;;19.34;34.73
51999;BME280;73339;50.924;11.598;2023-12-20T07:13:26;99143.59;;;19.40;34.62
51999;BME280;73339;50.924;11.598;2023-12-20T07:15:56;99145.67;;;19.34;34.72
51999;BME280;73339;50.924;11.598;2023-12-20T07:18:27;99143.73;;;19.32;34.77
51999;BME280;73339;50.924;11.598;2023-12-20T07:20:57;99143.26;;;19.34;34.76
51999;BME280;73339;50.924;11.598;2023-12-20T07:23:27;99145.67;;;19.34;34.75
51999;BME280;73339;50.924;11.598;2023-12-20T07:25:58;99149.71;;;19.35;34.74
51999;BME280;73339;50.924;11.598;2023-12-20T07:28:29;99146.08;;;19.35;34.72
51999;BME280;73339;50.924;11.598;2023-12-20T07:30:59;99141.67;;;19.40;34.60
51999;BME280;73339;50.924;11.598;2023-12-20T07:33:29;99143.18;;;19.40;34.56
51999;BME280;73339;50.924;11.598;2023-12-20T07:36:00;99138.92;;;19.41;34.49
51999;BME280;73339;50.924;11.598;2023-12-20T07:38:31;99138.87;;;19.38;34.50
51999;BME280;73339;50.924;11.598;2023-12-20T07:41:01;99137.77;;;19.42;34.38
51999;BME280;73339;50.924;11.598;2023-12-20T07:43:31;99142.19;;;19.38;34.41
51999;BME280;73339;50.924;11.598;2023-12-20T07:46:05;99139.08;;;19.35;34.41
51999;BME280;73339;50.924;11.598;2023-12-20T07:48:34;99137.92;;;19.36;34.29
51999;BME280;73339;50.924;11.598;2023-12-20T07:51:03;99145.26;;;19.39;34.26
51999;BME280;73339;50.924;11.598;2023-12-20T07:53:33;99144.42;;;19.37;34.21
51999;BME280;73339;50.924;11.598;2023-12-20T07:58:34;99154.79;;;19.30;34.35
51999;BME280;73339;50.924;11.598;2023-12-20T08:01:05;99158.99;;;19.28;34.33
51999;BME280;73339;50.924;11.598;2023-12-20T08:03:35;99156.19;;;19.31;34.24
51999;BME280;73339;50.924;11.598;2023-12-20T08:06:06;99153.98;;;19.35;34.10
51999;BME280;73339;50.924;11.598;2023-12-20T08:08:36;99148.92;;;19.32;34.16
51999;BME280;73339;50.924;11.598;2023-12-20T08:11:06;99148.72;;;19.34;34.10
51999;BME280;73339;50.924;11.598;2023-12-20T08:13:37;99150.26;;;19.39;33.96
51999;BME280;73339;50.924;11.598;2023-12-20T08:16:08;99157.55;;;19.33;34.00
51999;BME280;73339;50.924;11.598;2023-12-20T08:18:38;99151.61;;;19.25;34.11
51999;BME280;73339;50.924;11.598;2023-12-20T08:21:08;99151.79;;;19.33;33.96
51999;BME280;73339;50.924;11.598;2023-12-20T08:23:39;99161.26;;;19.30;33.93
51999;BME280;73339;50.924;11.598;2023-12-20T08:26:09;99166.70;;;19.33;33.88
51999;BME280;73339;50.924;11.598;2023-12-20T08:28:40;99166.91;;;19.34;33.86
51999;BME280;73339;50.924;11.598;2023-12-20T08:31:14;99168.45;;;19.34;33.75
51999;BME280;73339;50.924;11.598;2023-12-20T08:33:41;99170.40;;;19.23;33.89
51999;BME280;73339;50.924;11.598;2023-12-20T08:36:11;99172.52;;;19.33;33.67
51999;BME280;73339;50.924;11.598;2023-12-20T08:38:42;99173.89;;;19.33;33.68
51999;BME280;73339;50.924;11.598;2023-12-20T08:41:12;99179.35;;;19.20;33.87
51999;BME280;73339;50.924;11.598;2023-12-20T08:43:43;99169.12;;;19.14;33.95
51999;BME280;73339;50.924;11.598;2023-12-20T08:46:14;99161.98;;;19.24;33.75
51999;BME280;73339;50.924;11.598;2023-12-20T08:48:44;99158.85;;;19.27;33.67
51999;BME280;73339;50.924;11.598;2023-12-20T08:51:15;99157.68;;;19.27;33.66
51999;BME280;73339;50.924;11.598;2023-12-20T08:53:45;99153.34;;;19.32;33.56
51999;BME280;73339;50.924;11.598;2023-12-20T08:56:15;99155.24;;;19.34;33.59
51999;BME280;73339;50.924;11.598;2023-12-20T08:58:46;99146.89;;;19.23;33.78
51999;BME280;73339;50.924;11.598;2023-12-20T09:01:16;99146.63;;;19.35;33.50
51999;BME280;73339;50.924;11.598;2023-12-20T09:03:47;99157.15;;;19.33;33.54
51999;BME280;73339;50.924;11.598;2023-12-20T09:06:17;99166.31;;;19.30;33.62
51999;BME280;73339;50.924;11.598;2023-12-20T09:08:48;99164.40;;;19.35;33.50
51999;BME280;73339;50.924;11.598;2023-12-20T09:11:18;99163.66;;;19.24;33.67
51999;BME280;73339;50.924;11.598;2023-12-20T09:13:49;99163.71;;;19.25;33.63
51999;BME280;73339;50.924;11.598;2023-12-20T09:16:19;99162.92;;;19.35;33.40
51999;BME280;73339;50.924;11.598;2023-12-20T09:18:49;99169.83;;;19.32;33.46
51999;BME280;73339;50.924;11.598;2023-12-20T09:21:20;99173.19;;;19.28;33.51
51999;BME280;73339;50.924;11.598;2023-12-20T09:23:50;99184.42;;;19.25;33.52
51999;BME280;73339;50.924;11.598;2023-12-20T09:26:21;99176.17;;;19.27;33.51
51999;BME280;73339;50.924;11.598;2023-12-20T09:28:52;99180.09;;;19.22;33.74
51999;BME280;73339;50.924;11.598;2023-12-20T09:31:22;99187.89;;;19.30;33.61
51999;BME280;73339;50.924;11.598;2023-12-20T09:33:52;99183.81;;;19.34;33.66
51999;BME280;73339;50.924;11.598;2023-12-20T09:36:23;99187.31;;;19.35;33.77
51999;BME280;73339;50.924;11.598;2023-12-20T09:38:53;99191.64;;;19.30;33.82
51999;BME280;73339;50.924;11.598;2023-12-20T09:41:25;99179.51;;;19.25;33.95
51999;BME280;73339;50.924;11.598;2023-12-20T09:43:54;99164.62;;;19.30;33.97
51999;BME280;73339;50.924;11.598;2023-12-20T09:46:26;99162.00;;;19.23;34.06
51999;BME280;73339;50.924;11.598;2023-12-20T09:48:56;99155.97;;;19.12;34.32
51999;BME280;73339;50.924;11.598;2023-12-20T09:51:27;99165.22;;;19.21;34.18
51999;BME280;73339;50.924;11.598;2023-12-20T09:53:57;99164.60;;;19.19;34.22
51999;BME280;73339;50.924;11.598;2023-12-20T09:56:27;99164.85;;;19.26;34.14
51999;BME280;73339;50.924;11.598;2023-12-20T09:58:57;99166.50;;;19.29;34.08
51999;BME280;73339;50.924;11.598;2023-12-20T10:01:28;99162.05;;;19.34;33.98
51999;BME280;73339;50.924;11.598;2023-12-20T10:04:00;99154.26;;;19.22;34.20
51999;BME280;73339;50.924;11.598;2023-12-20T10:06:29;99159.21;;;19.30;34.06
51999;BME280;73339;50.924;11.598;2023-12-20T10:08:59;99152.75;;;19.33;33.99
51999;BME280;73339;50.924;11.598;2023-12-20T10:11:30;99150.05;;;19.26;34.09
51999;BME280;73339;50.924;11.598;2023-12-20T10:14:00;99151.41;;;19.26;34.12
51999;BME280;73339;50.924;11.598;2023-12-20T10:16:32;99144.42;;;19.35;33.97
51999;BME280;73339;50.924;11.598;2023-12-20T10:19:01;99141.80;;;19.29;34.04
51999;BME280;73339;50.924;11.598;2023-12-20T10:21:32;99137.00;;;19.32;33.96
51999;BME280;73339;50.924;11.598;2023-12-20T10:24:03;99134.16;;;19.25;34.10
51999;BME280;73339;50.924;11.598;2023-12-20T10:26:32;99132.36;;;19.32;33.99
51999;BME280;73339;50.924;11.598;2023-12-20T10:29:05;99117.71;;;19.31;33.93
51999;BME280;73339;50.924;11.598;2023-12-20T10:31:34;99121.31;;;19.36;33.83
51999;BME280;73339;50.924;11.598;2023-12-20T10:34:04;99109.15;;;19.34;33.89
51999;BME280;73339;50.924;11.598;2023-12-20T10:36:35;99109.80;;;19.32;33.92
51999;BME280;73339;50.924;11.598;2023-12-20T10:39:06;99125.73;;;19.31;33.97
51999;BME280;73339;50.924;11.598;2023-12-20T10:41:37;99108.69;;;19.27;33.97
51999;BME280;73339;50.924;11.598;2023-12-20T10:44:07;99105.99;;;19.22;34.11
51999;BME280;73339;50.924;11.598;2023-12-20T10:46:37;99107.46;;;19.33;33.97
51999;BME280;73339;50.924;11.598;2023-12-20T10:49:08;99108.00;;;19.31;34.00
51999;BME280;73339;50.924;11.598;2023-12-20T10:51:38;99108.43;;;19.29;34.06
51999;BME280;73339;50.924;11.598;2023-12-20T10:54:08;99112.65;;;19.33;33.98
51999;BME280;73339;50.924;11.598;2023-12-20T10:56:38;99114.97;;;19.26;34.17
51999;BME280;73339;50.924;11.598;2023-12-20T10:59:10;99110.16;;;19.36;33.94
51999;BME280;73339;50.924;11.598;2023-12-20T11:01:40;99111.84;;;19.29;34.10
51999;BME280;73339;50.924;11.598;2023-12-20T11:04:15;99111.87;;;19.32;34.04
51999;BME280;73339;50.924;11.598;2023-12-20T11:06:47;99098.37;;;19.31;34.07
51999;BME280;73339;50.924;11.598;2023-12-20T11:09:17;99101.00;;;19.25;34.19
51999;BME280;73339;50.924;11.598;2023-12-20T11:11:51;99108.93;;;19.35;34.04
51999;BME280;73339;50.924;11.598;2023-12-20T11:14:16;99104.24;;;19.38;33.98
51999;BME280;73339;50.924;11.598;2023-12-20T11:16:42;99100.70;;;19.35;34.09
51999;BME280;73339;50.924;11.598;2023-12-20T11:19:13;99101.50;;;19.34;34.09
51999;BME280;73339;50.924;11.598;2023-12-20T11:21:43;99096.36;;;19.43;33.91
51999;BME280;73339;50.924;11.598;2023-12-20T11:24:15;99090.81;;;19.47;33.87
51999;BME280;73339;50.924;11.598;2023-12-20T11:26:47;99096.49;;;19.47;33.98
51999;BME280;73339;50.924;11.598;2023-12-20T11:31:45;99089.76;;;19.47;33.98
51999;BME280;73339;50.924;11.598;2023-12-20T11:34:17;99085.55;;;19.40;34.11
51999;BME280;73339;50.924;11.598;2023-12-20T11:36:46;99086.02;;;19.42;34.06
51999;BME280;73339;50.924;11.598;2023-12-20T11:39:21;99078.47;;;19.41;34.13
51999;BME280;73339;50.924;11.598;2023-12-20T11:41:49;99079.13;;;19.44;34.07
51999;BME280;73339;50.924;11.598;2023-12-20T11:44:17;99072.45;;;19.46;33.97
51999;BME280;73339;50.924;11.598;2023-12-20T11:46:49;99067.78;;;19.39;34.18
51999;BME280;73339;50.924;11.598;2023-12-20T11:49:18;99063.72;;;19.41;34.07
51999;BME280;73339;50.924;11.598;2023-12-20T11:51:49;99049.75;;;19.37;34.16
51999;BME280;73339;50.924;11.598;2023-12-20T11:54:20;99048.50;;;19.39;34.13
51999;BME280;73339;50.924;11.598;2023-12-20T11:56:50;99056.78;;;19.34;34.22
51999;BME280;73339;50.924;11.598;2023-12-20T11:59:21;99039.65;;;19.37;34.20
51999;BME280;73339;50.924;11.598;2023-12-20T12:01:51;99043.21;;;19.41;34.14
51999;BME280;73339;50.924;11.598;2023-12-20T12:04:21;99043.24;;;19.37;34.19
51999;BME280;73339;50.924;11.598;2023-12-20T12:06:52;99047.08;;;19.40;34.18
51999;BME280;73339;50.924;11.598;2023-12-20T12:09:22;99051.11;;;19.41;34.19
51999;BME280;73339;50.924;11.598;2023-12-20T12:11:53;99043.81;;;19.40;34.21
51999;BME280;73339;50.924;11.598;2023-12-20T12:14:24;99044.27;;;19.42;34.18
51999;BME280;73339;50.924;11.598;2023-12-20T12:16:54;99055.14;;;19.43;34.16
51999;BME280;73339;50.924;11.598;2023-12-20T12:19:26;99058.73;;;19.42;34.22
51999;BME280;73339;50.924;11.598;2023-12-20T12:24:25;99034.93;;;19.46;34.15
51999;BME280;73339;50.924;11.598;2023-12-20T12:26:57;99031.18;;;19.38;34.27
51999;BME280;73339;50.924;11.598;2023-12-20T12:29:27;99027.54;;;19.42;34.23
51999;BME280;73339;50.924;11.598;2023-12-20T12:31:57;99019.15;;;19.47;34.13
51999;BME280;73339;50.924;11.598;2023-12-20T12:34:27;99021.84;;;19.49;34.11
51999;BME280;73339;50.924;11.598;2023-12-20T12:36:58;99019.67;;;19.50;34.11
51999;BME280;73339;50.924;11.598;2023-12-20T12:39:29;99007.80;;;19.49;34.18
51999;BME280;73339;50.924;11.598;2023-12-20T12:41:59;99006.48;;;19.50;34.17
51999;BME280;73339;50.924;11.598;2023-12-20T12:44:29;99004.31;;;19.52;34.08
51999;BME280;73339;50.924;11.598;2023-12-20T12:46:59;98995.29;;;19.46;34.18
51999;BME280;73339;50.924;11.598;2023-12-20T12:49:30;99011.15;;;19.39;34.36
51999;BME280;73339;50.924;11.598;2023-12-20T12:52:01;98998.96;;;19.38;34.45
51999;BME280;73339;50.924;11.598;2023-12-20T12:54:31;99003.98;;;19.46;34.30
51999;BME280;73339;50.924;11.598;2023-12-20T12:57:02;98984.67;;;19.39;34.41
51999;BME280;73339;50.924;11.598;2023-12-20T12:59:32;98981.61;;;19.41;34.37
51999;BME280;73339;50.924;11.598;2023-12-20T13:02:03;98977.15;;;19.33;34.59
51999;BME280;73339;50.924;11.598;2023-12-20T13:04:33;98975.74;;;19.40;34.44
51999;BME280;73339;50.924;11.598;2023-12-20T13:07:04;98965.21;;;19.45;34.43
51999;BME280;73339;50.924;11.598;2023-12-20T13:09:34;98964.66;;;19.51;34.26
51999;BME280;73339;50.924;11.598;2023-12-20T13:12:05;98955.66;;;19.47;34.33
51999;BME280;73339;50.924;11.598;2023-12-20T13:14:35;98949.20;;;19.37;34.56